sensor_id;sensor_type;location;lat;lon;timestamp;temperature;humidity
57390;DHT22;43217;52.694;6.214;2023-02-12T00:01:33;6.10;99.90
57390;DHT22;43217;52.694;6.214;2023-02-12T00:03:59;6.10;99.90
57390;DHT22;43217;52.694;6.214;2023-02-12T00:06:25;6.10;99.90
57390;DHT22;43217;52.694;6.214;2023-02-12T00:08:53;6.00;99.90
57390;DHT22;43217;52.694;6.214;2023-02-12T00:11:22;6.00;99.90
57390;DHT22;43217;52.694;6.214;2023-02-12T00:13:48;6.00;99.90
57390;DHT22;43217;52.694;6.214;2023-02-12T00:16:17;5.90;99.90
57390;DHT22;43217;52.694;6.214;2023-02-12T00:18:44;5.90;99.90
57390;DHT22;43217;52.694;6.214;2023-02-12T00:21:11;5.90;99.90
57390;DHT22;43217;52.694;6.214;2023-02-12T00:23:38;5.90;99.90
57390;DHT22;43217;52.694;6.214;2023-02-12T00:26:16;5.80;99.90
57390;DHT22;43217;52.694;6.214;2023-02-12T00:28:42;5.80;99.90
57390;DHT22;43217;52.694;6.214;2023-02-12T00:31:14;5.80;99.90
57390;DHT22;43217;52.694;6.214;2023-02-12T00:33:41;5.80;99.90
57390;DHT22;43217;52.694;6.214;2023-02-12T00:36:08;5.80;99.90
57390;DHT22;43217;52.694;6.214;2023-02-12T00:38:34;5.80;99.90
57390;DHT22;43217;52.694;6.214;2023-02-12T00:41:00;5.80;99.90
57390;DHT22;43217;52.694;6.214;2023-02-12T00:43:25;5.70;99.90
57390;DHT22;43217;52.694;6.214;2023-02-12T00:45:51;5.70;99.90
57390;DHT22;43217;52.694;6.214;2023-02-12T00:48:17;5.70;99.90
57390;DHT22;43217;52.694;6.214;2023-02-12T00:50:46;5.70;99.90
57390;DHT22;43217;52.694;6.214;2023-02-12T00:53:13;5.70;99.90
57390;DHT22;43217;52.694;6.214;2023-02-12T00:55:38;5.70;99.90
57390;DHT22;43217;52.694;6.214;2023-02-12T00:58:04;5.60;99.90
57390;DHT22;43217;52.694;6.214;2023-02-12T01:00:30;5.60;99.90
57390;DHT22;43217;52.694;6.214;2023-02-12T01:02:55;5.60;99.90
57390;DHT22;43217;52.694;6.214;2023-02-12T01:05:21;5.50;99.90
57390;DHT22;43217;52.694;6.214;2023-02-12T01:07:51;5.50;99.90
57390;DHT22;43217;52.694;6.214;2023-02-12T01:10:17;5.40;99.90
57390;DHT22;43217;52.694;6.214;2023-02-12T01:12:45;5.40;99.90
57390;DHT22;43217;52.694;6.214;2023-02-12T01:15:11;5.30;99.90
57390;DHT22;43217;52.694;6.214;2023-02-12T01:17:37;5.20;99.90
57390;DHT22;43217;52.694;6.214;2023-02-12T01:20:04;5.00;99.90
57390;DHT22;43217;52.694;6.214;2023-02-12T01:22:33;5.00;99.90
57390;DHT22;43217;52.694;6.214;2023-02-12T01:24:58;5.00;99.90
57390;DHT22;43217;52.694;6.214;2023-02-12T01:27:24;5.00;99.90
57390;DHT22;43217;52.694;6.214;2023-02-12T01:29:50;5.00;99.90
57390;DHT22;43217;52.694;6.214;2023-02-12T01:32:15;5.00;99.90
57390;DHT22;43217;52.694;6.214;2023-02-12T01:34:41;5.00;99.90
57390;DHT22;43217;52.694;6.214;2023-02-12T01:37:07;5.00;99.90
57390;DHT22;43217;52.694;6.214;2023-02-12T01:39:33;5.00;99.90
57390;DHT22;43217;52.694;6.214;2023-02-12T01:42:00;5.00;99.90
57390;DHT22;43217;52.694;6.214;2023-02-12T01:44:29;5.00;99.90
57390;DHT22;43217;52.694;6.214;2023-02-12T01:46:59;5.10;99.90
57390;DHT22;43217;52.694;6.214;2023-02-12T01:49:40;5.10;99.90
57390;DHT22;43217;52.694;6.214;2023-02-12T01:52:17;5.10;99.90
57390;DHT22;43217;52.694;6.214;2023-02-12T01:54:46;5.10;99.90
57390;DHT22;43217;52.694;6.214;2023-02-12T01:57:13;5.10;99.90
57390;DHT22;43217;52.694;6.214;2023-02-12T01:59:40;5.10;99.90
57390;DHT22;43217;52.694;6.214;2023-02-12T02:02:07;5.20;99.90
57390;DHT22;43217;52.694;6.214;2023-02-12T02:04:40;5.10;99.90
57390;DHT22;43217;52.694;6.214;2023-02-12T02:07:08;5.20;99.90
57390;DHT22;43217;52.694;6.214;2023-02-12T02:09:37;5.20;99.90
57390;DHT22;43217;52.694;6.214;2023-02-12T02:12:06;5.30;99.90
57390;DHT22;43217;52.694;6.214;2023-02-12T02:14:53;5.30;99.90
57390;DHT22;43217;52.694;6.214;2023-02-12T02:30:33;5.40;99.90
57390;DHT22;43217;52.694;6.214;2023-02-12T02:33:36;5.40;99.90
57390;DHT22;43217;52.694;6.214;2023-02-12T02:42:18;5.30;99.90
57390;DHT22;43217;52.694;6.214;2023-02-12T02:44:57;5.30;99.90
57390;DHT22;43217;52.694;6.214;2023-02-12T02:47:31;5.30;99.90
57390;DHT22;43217;52.694;6.214;2023-02-12T02:50:02;5.40;99.90
57390;DHT22;43217;52.694;6.214;2023-02-12T02:52:47;5.40;99.90
57390;DHT22;43217;52.694;6.214;2023-02-12T02:55:16;5.40;99.90
57390;DHT22;43217;52.694;6.214;2023-02-12T02:57:47;5.30;99.90
57390;DHT22;43217;52.694;6.214;2023-02-12T03:02:48;5.20;99.90
57390;DHT22;43217;52.694;6.214;2023-02-12T03:05:26;5.20;99.90
57390;DHT22;43217;52.694;6.214;2023-02-12T03:07:59;5.20;99.90
57390;DHT22;43217;52.694;6.214;2023-02-12T03:10:33;5.20;99.90
57390;DHT22;43217;52.694;6.214;2023-02-12T03:13:29;5.20;99.90
57390;DHT22;43217;52.694;6.214;2023-02-12T03:16:02;5.20;99.90
57390;DHT22;43217;52.694;6.214;2023-02-12T03:18:39;5.20;99.90
57390;DHT22;43217;52.694;6.214;2023-02-12T03:21:13;5.20;99.90
57390;DHT22;43217;52.694;6.214;2023-02-12T03:26:13;5.20;99.90
57390;DHT22;43217;52.694;6.214;2023-02-12T03:28:40;5.20;99.90
57390;DHT22;43217;52.694;6.214;2023-02-12T03:34:10;5.20;99.90
57390;DHT22;43217;52.694;6.214;2023-02-12T03:36:49;5.20;99.90
57390;DHT22;43217;52.694;6.214;2023-02-12T03:40:20;5.20;99.90
57390;DHT22;43217;52.694;6.214;2023-02-12T03:48:08;5.20;99.90
57390;DHT22;43217;52.694;6.214;2023-02-12T03:50:51;5.20;99.90
57390;DHT22;43217;52.694;6.214;2023-02-12T03:53:18;5.20;99.90
57390;DHT22;43217;52.694;6.214;2023-02-12T03:55:46;5.20;99.90
57390;DHT22;43217;52.694;6.214;2023-02-12T03:58:17;5.20;99.90
57390;DHT22;43217;52.694;6.214;2023-02-12T04:00:45;5.20;99.90
57390;DHT22;43217;52.694;6.214;2023-02-12T04:03:11;5.20;99.90
57390;DHT22;43217;52.694;6.214;2023-02-12T04:05:36;5.10;99.90
57390;DHT22;43217;52.694;6.214;2023-02-12T04:08:06;5.00;99.90
57390;DHT22;43217;52.694;6.214;2023-02-12T04:10:45;4.90;99.90
57390;DHT22;43217;52.694;6.214;2023-02-12T04:13:15;4.80;99.90
57390;DHT22;43217;52.694;6.214;2023-02-12T04:18:44;4.70;99.90
57390;DHT22;43217;52.694;6.214;2023-02-12T04:21:26;4.70;99.90
57390;DHT22;43217;52.694;6.214;2023-02-12T04:26:49;4.60;99.90
57390;DHT22;43217;52.694;6.214;2023-02-12T04:37:42;4.40;99.90
57390;DHT22;43217;52.694;6.214;2023-02-12T04:40:12;4.30;99.90
57390;DHT22;43217;52.694;6.214;2023-02-12T04:42:52;4.30;99.90
57390;DHT22;43217;52.694;6.214;2023-02-12T04:45:25;4.20;99.90
57390;DHT22;43217;52.694;6.214;2023-02-12T04:47:51;4.20;99.90
57390;DHT22;43217;52.694;6.214;2023-02-12T04:50:17;4.10;99.90
57390;DHT22;43217;52.694;6.214;2023-02-12T04:52:43;4.20;99.90
57390;DHT22;43217;52.694;6.214;2023-02-12T04:55:09;4.20;99.90
57390;DHT22;43217;52.694;6.214;2023-02-12T04:57:35;4.20;99.90
57390;DHT22;43217;52.694;6.214;2023-02-12T05:00:01;4.20;99.90
57390;DHT22;43217;52.694;6.214;2023-02-12T05:02:26;4.20;99.90
57390;DHT22;43217;52.694;6.214;2023-02-12T05:04:52;4.20;99.90
57390;DHT22;43217;52.694;6.214;2023-02-12T05:07:17;4.10;99.90
57390;DHT22;43217;52.694;6.214;2023-02-12T05:09:43;4.20;99.90
57390;DHT22;43217;52.694;6.214;2023-02-12T05:12:09;4.10;99.90
57390;DHT22;43217;52.694;6.214;2023-02-12T05:14:34;4.10;99.90
57390;DHT22;43217;52.694;6.214;2023-02-12T05:17:00;4.10;99.90
57390;DHT22;43217;52.694;6.214;2023-02-12T05:19:25;4.10;99.90
57390;DHT22;43217;52.694;6.214;2023-02-12T05:21:51;4.10;99.90
57390;DHT22;43217;52.694;6.214;2023-02-12T05:24:17;4.20;99.90
57390;DHT22;43217;52.694;6.214;2023-02-12T05:26:42;4.20;99.90
57390;DHT22;43217;52.694;6.214;2023-02-12T05:29:08;4.20;99.90
57390;DHT22;43217;52.694;6.214;2023-02-12T05:31:34;4.20;99.90
57390;DHT22;43217;52.694;6.214;2023-02-12T05:34:00;4.30;99.90
57390;DHT22;43217;52.694;6.214;2023-02-12T05:36:25;4.30;99.90
57390;DHT22;43217;52.694;6.214;2023-02-12T05:38:52;4.40;99.90
57390;DHT22;43217;52.694;6.214;2023-02-12T05:41:22;4.40;99.90
57390;DHT22;43217;52.694;6.214;2023-02-12T05:43:48;4.40;99.90
57390;DHT22;43217;52.694;6.214;2023-02-12T05:46:14;4.30;99.90
57390;DHT22;43217;52.694;6.214;2023-02-12T05:48:40;4.40;99.90
57390;DHT22;43217;52.694;6.214;2023-02-12T05:51:12;4.30;99.90
57390;DHT22;43217;52.694;6.214;2023-02-12T05:53:39;4.30;99.90
57390;DHT22;43217;52.694;6.214;2023-02-12T05:58:47;4.30;99.90
57390;DHT22;43217;52.694;6.214;2023-02-12T06:01:19;4.30;99.90
57390;DHT22;43217;52.694;6.214;2023-02-12T06:03:45;4.30;99.90
57390;DHT22;43217;52.694;6.214;2023-02-12T06:06:10;4.40;99.90
57390;DHT22;43217;52.694;6.214;2023-02-12T06:08:37;4.40;99.90
57390;DHT22;43217;52.694;6.214;2023-02-12T06:11:05;4.40;99.90
57390;DHT22;43217;52.694;6.214;2023-02-12T06:13:31;4.50;99.90
57390;DHT22;43217;52.694;6.214;2023-02-12T06:15:58;4.50;99.90
57390;DHT22;43217;52.694;6.214;2023-02-12T06:18:24;4.50;99.90
57390;DHT22;43217;52.694;6.214;2023-02-12T06:20:50;4.60;99.90
57390;DHT22;43217;52.694;6.214;2023-02-12T06:23:15;4.60;99.90
57390;DHT22;43217;52.694;6.214;2023-02-12T06:25:41;4.60;99.90
57390;DHT22;43217;52.694;6.214;2023-02-12T06:28:07;4.60;99.90
57390;DHT22;43217;52.694;6.214;2023-02-12T06:30:33;4.60;99.90
57390;DHT22;43217;52.694;6.214;2023-02-12T06:32:59;4.60;99.90
57390;DHT22;43217;52.694;6.214;2023-02-12T06:35:26;4.60;99.90
57390;DHT22;43217;52.694;6.214;2023-02-12T06:37:51;4.70;99.90
57390;DHT22;43217;52.694;6.214;2023-02-12T06:40:19;4.70;99.90
57390;DHT22;43217;52.694;6.214;2023-02-12T06:42:45;4.70;99.90
57390;DHT22;43217;52.694;6.214;2023-02-12T06:45:10;4.80;99.90
57390;DHT22;43217;52.694;6.214;2023-02-12T06:47:36;4.80;99.90
57390;DHT22;43217;52.694;6.214;2023-02-12T06:50:02;4.80;99.90
57390;DHT22;43217;52.694;6.214;2023-02-12T06:52:28;4.90;99.90
57390;DHT22;43217;52.694;6.214;2023-02-12T06:54:54;4.80;99.90
57390;DHT22;43217;52.694;6.214;2023-02-12T06:57:20;4.80;99.90
57390;DHT22;43217;52.694;6.214;2023-02-12T06:59:45;4.90;99.90
57390;DHT22;43217;52.694;6.214;2023-02-12T07:02:11;4.90;99.90
57390;DHT22;43217;52.694;6.214;2023-02-12T07:04:37;4.90;99.90
57390;DHT22;43217;52.694;6.214;2023-02-12T07:07:03;4.90;99.90
57390;DHT22;43217;52.694;6.214;2023-02-12T07:09:29;4.90;99.90
57390;DHT22;43217;52.694;6.214;2023-02-12T07:11:57;5.00;99.90
57390;DHT22;43217;52.694;6.214;2023-02-12T07:14:23;5.00;99.90
57390;DHT22;43217;52.694;6.214;2023-02-12T07:16:48;5.00;99.90
57390;DHT22;43217;52.694;6.214;2023-02-12T07:19:14;5.00;99.90
57390;DHT22;43217;52.694;6.214;2023-02-12T07:21:41;5.00;99.90
57390;DHT22;43217;52.694;6.214;2023-02-12T07:24:10;5.00;99.90
57390;DHT22;43217;52.694;6.214;2023-02-12T07:26:37;5.10;99.90
57390;DHT22;43217;52.694;6.214;2023-02-12T07:29:03;5.10;99.90
57390;DHT22;43217;52.694;6.214;2023-02-12T07:31:29;5.10;99.90
57390;DHT22;43217;52.694;6.214;2023-02-12T07:33:57;5.10;99.90
57390;DHT22;43217;52.694;6.214;2023-02-12T07:36:24;5.10;99.90
57390;DHT22;43217;52.694;6.214;2023-02-12T07:38:50;5.20;99.90
57390;DHT22;43217;52.694;6.214;2023-02-12T07:41:22;5.20;99.90
57390;DHT22;43217;52.694;6.214;2023-02-12T07:43:52;5.20;99.90
57390;DHT22;43217;52.694;6.214;2023-02-12T07:46:23;5.20;99.90
57390;DHT22;43217;52.694;6.214;2023-02-12T07:48:51;5.30;99.90
57390;DHT22;43217;52.694;6.214;2023-02-12T07:51:17;5.40;99.90
57390;DHT22;43217;52.694;6.214;2023-02-12T07:53:43;5.40;99.90
57390;DHT22;43217;52.694;6.214;2023-02-12T07:56:11;5.40;99.90
57390;DHT22;43217;52.694;6.214;2023-02-12T07:58:38;5.50;99.90
57390;DHT22;43217;52.694;6.214;2023-02-12T08:01:16;5.50;99.90
57390;DHT22;43217;52.694;6.214;2023-02-12T08:03:43;5.60;99.90
57390;DHT22;43217;52.694;6.214;2023-02-12T08:06:18;5.60;99.90
57390;DHT22;43217;52.694;6.214;2023-02-12T08:08:45;5.60;99.90
57390;DHT22;43217;52.694;6.214;2023-02-12T08:11:12;5.70;99.90
57390;DHT22;43217;52.694;6.214;2023-02-12T08:13:39;5.70;99.90
57390;DHT22;43217;52.694;6.214;2023-02-12T08:16:16;5.80;99.90
57390;DHT22;43217;52.694;6.214;2023-02-12T08:18:42;5.90;99.90
57390;DHT22;43217;52.694;6.214;2023-02-12T08:21:10;5.90;99.90
57390;DHT22;43217;52.694;6.214;2023-02-12T08:23:37;5.90;99.90
57390;DHT22;43217;52.694;6.214;2023-02-12T08:26:12;5.90;99.90
57390;DHT22;43217;52.694;6.214;2023-02-12T08:28:43;6.00;99.90
57390;DHT22;43217;52.694;6.214;2023-02-12T08:31:12;6.00;99.90
57390;DHT22;43217;52.694;6.214;2023-02-12T08:33:37;6.00;99.90
57390;DHT22;43217;52.694;6.214;2023-02-12T08:36:10;6.00;99.90
57390;DHT22;43217;52.694;6.214;2023-02-12T08:38:37;6.10;99.90
57390;DHT22;43217;52.694;6.214;2023-02-12T08:41:06;6.10;99.90
57390;DHT22;43217;52.694;6.214;2023-02-12T08:43:32;6.20;99.90
57390;DHT22;43217;52.694;6.214;2023-02-12T08:48:31;6.30;99.90
57390;DHT22;43217;52.694;6.214;2023-02-12T08:51:18;6.30;99.90
57390;DHT22;43217;52.694;6.214;2023-02-12T08:53:46;6.30;99.90
57390;DHT22;43217;52.694;6.214;2023-02-12T08:56:16;6.40;99.90
57390;DHT22;43217;52.694;6.214;2023-02-12T08:58:42;6.40;99.90
57390;DHT22;43217;52.694;6.214;2023-02-12T09:01:11;6.40;99.90
57390;DHT22;43217;52.694;6.214;2023-02-12T09:03:37;6.50;99.90
57390;DHT22;43217;52.694;6.214;2023-02-12T09:06:05;6.50;99.90
57390;DHT22;43217;52.694;6.214;2023-02-12T09:08:31;6.60;99.90
57390;DHT22;43217;52.694;6.214;2023-02-12T09:10:57;6.60;99.90
57390;DHT22;43217;52.694;6.214;2023-02-12T09:13:23;6.60;99.90
57390;DHT22;43217;52.694;6.214;2023-02-12T09:15:49;6.70;99.90
57390;DHT22;43217;52.694;6.214;2023-02-12T09:18:15;6.70;99.90
57390;DHT22;43217;52.694;6.214;2023-02-12T09:20:43;6.80;99.90
57390;DHT22;43217;52.694;6.214;2023-02-12T09:23:12;6.80;99.90
57390;DHT22;43217;52.694;6.214;2023-02-12T09:25:42;6.80;99.90
57390;DHT22;43217;52.694;6.214;2023-02-12T09:28:09;6.90;99.90
57390;DHT22;43217;52.694;6.214;2023-02-12T09:30:35;6.90;99.90
57390;DHT22;43217;52.694;6.214;2023-02-12T09:33:01;6.90;99.90
57390;DHT22;43217;52.694;6.214;2023-02-12T09:35:27;7.00;99.90
57390;DHT22;43217;52.694;6.214;2023-02-12T09:37:53;7.00;99.90
57390;DHT22;43217;52.694;6.214;2023-02-12T09:40:46;7.00;99.90
57390;DHT22;43217;52.694;6.214;2023-02-12T09:43:29;7.10;99.90
57390;DHT22;43217;52.694;6.214;2023-02-12T09:46:05;7.10;99.90
57390;DHT22;43217;52.694;6.214;2023-02-12T09:48:52;7.20;99.90
57390;DHT22;43217;52.694;6.214;2023-02-12T09:51:19;7.20;99.90
57390;DHT22;43217;52.694;6.214;2023-02-12T09:53:47;7.20;99.90
57390;DHT22;43217;52.694;6.214;2023-02-12T09:56:17;7.20;99.90
57390;DHT22;43217;52.694;6.214;2023-02-12T09:58:52;7.20;99.90
57390;DHT22;43217;52.694;6.214;2023-02-12T10:01:20;7.20;99.90
57390;DHT22;43217;52.694;6.214;2023-02-12T10:03:48;7.20;99.90
57390;DHT22;43217;52.694;6.214;2023-02-12T10:06:18;7.20;99.90
57390;DHT22;43217;52.694;6.214;2023-02-12T10:23:01;7.60;99.90
57390;DHT22;43217;52.694;6.214;2023-02-12T10:28:30;7.70;99.90
57390;DHT22;43217;52.694;6.214;2023-02-12T10:30:59;7.70;99.90
57390;DHT22;43217;52.694;6.214;2023-02-12T10:33:47;7.80;99.90
57390;DHT22;43217;52.694;6.214;2023-02-12T10:39:10;7.90;99.90
57390;DHT22;43217;52.694;6.214;2023-02-12T10:41:48;7.90;99.90
57390;DHT22;43217;52.694;6.214;2023-02-12T10:44:14;7.90;99.90
57390;DHT22;43217;52.694;6.214;2023-02-12T10:46:40;8.00;99.90
57390;DHT22;43217;52.694;6.214;2023-02-12T10:49:07;8.00;99.90
57390;DHT22;43217;52.694;6.214;2023-02-12T10:54:38;8.10;99.90
57390;DHT22;43217;52.694;6.214;2023-02-12T10:57:12;8.20;99.90
57390;DHT22;43217;52.694;6.214;2023-02-12T10:59:42;8.30;99.90
57390;DHT22;43217;52.694;6.214;2023-02-12T11:02:23;8.30;99.90
57390;DHT22;43217;52.694;6.214;2023-02-12T11:04:50;8.40;99.90
57390;DHT22;43217;52.694;6.214;2023-02-12T11:07:17;8.40;99.90
57390;DHT22;43217;52.694;6.214;2023-02-12T11:09:48;8.50;99.90
57390;DHT22;43217;52.694;6.214;2023-02-12T11:12:32;8.60;99.90
57390;DHT22;43217;52.694;6.214;2023-02-12T11:17:39;8.70;99.90
57390;DHT22;43217;52.694;6.214;2023-02-12T11:20:18;8.70;99.90
57390;DHT22;43217;52.694;6.214;2023-02-12T11:23:25;8.80;99.90
57390;DHT22;43217;52.694;6.214;2023-02-12T11:25:57;8.80;99.90
57390;DHT22;43217;52.694;6.214;2023-02-12T11:28:23;8.80;99.90
57390;DHT22;43217;52.694;6.214;2023-02-12T11:33:23;8.90;99.90
57390;DHT22;43217;52.694;6.214;2023-02-12T11:35:53;8.90;99.90
57390;DHT22;43217;52.694;6.214;2023-02-12T11:38:30;9.00;99.90
57390;DHT22;43217;52.694;6.214;2023-02-12T11:41:01;9.00;99.90
57390;DHT22;43217;52.694;6.214;2023-02-12T11:43:28;9.00;99.90
57390;DHT22;43217;52.694;6.214;2023-02-12T11:45:56;9.00;99.90
57390;DHT22;43217;52.694;6.214;2023-02-12T11:48:44;9.00;99.90
57390;DHT22;43217;52.694;6.214;2023-02-12T11:51:25;9.10;99.90
57390;DHT22;43217;52.694;6.214;2023-02-12T11:53:55;9.10;99.90
57390;DHT22;43217;52.694;6.214;2023-02-12T11:56:21;9.10;99.90
57390;DHT22;43217;52.694;6.214;2023-02-12T11:58:49;9.10;99.90
57390;DHT22;43217;52.694;6.214;2023-02-12T12:01:26;9.10;99.90
57390;DHT22;43217;52.694;6.214;2023-02-12T12:06:40;9.20;99.90
57390;DHT22;43217;52.694;6.214;2023-02-12T12:09:23;9.20;99.90
57390;DHT22;43217;52.694;6.214;2023-02-12T12:14:27;9.20;99.90
57390;DHT22;43217;52.694;6.214;2023-02-12T12:17:02;9.20;99.90
57390;DHT22;43217;52.694;6.214;2023-02-12T12:27:36;9.30;99.90
57390;DHT22;43217;52.694;6.214;2023-02-12T12:33:39;9.30;99.90
57390;DHT22;43217;52.694;6.214;2023-02-12T12:39:26;9.40;99.90
57390;DHT22;43217;52.694;6.214;2023-02-12T12:49:32;9.50;99.90
57390;DHT22;43217;52.694;6.214;2023-02-12T13:00:12;9.60;99.90
57390;DHT22;43217;52.694;6.214;2023-02-12T13:05:48;9.50;99.90
57390;DHT22;43217;52.694;6.214;2023-02-12T13:08:38;9.50;99.90
57390;DHT22;43217;52.694;6.214;2023-02-12T13:11:22;9.40;99.90
57390;DHT22;43217;52.694;6.214;2023-02-12T13:14:27;9.40;99.90
57390;DHT22;43217;52.694;6.214;2023-02-12T13:17:20;9.40;99.90
57390;DHT22;43217;52.694;6.214;2023-02-12T13:28:38;9.30;99.90
57390;DHT22;43217;52.694;6.214;2023-02-12T13:31:08;9.30;99.90
57390;DHT22;43217;52.694;6.214;2023-02-12T13:33:42;9.30;99.90
57390;DHT22;43217;52.694;6.214;2023-02-12T13:36:11;9.20;99.90
57390;DHT22;43217;52.694;6.214;2023-02-12T13:38:42;9.20;99.90
57390;DHT22;43217;52.694;6.214;2023-02-12T13:41:11;9.20;99.90
57390;DHT22;43217;52.694;6.214;2023-02-12T13:49:26;9.20;99.90
57390;DHT22;43217;52.694;6.214;2023-02-12T13:52:01;9.10;99.90
57390;DHT22;43217;52.694;6.214;2023-02-12T13:55:00;9.10;99.90
57390;DHT22;43217;52.694;6.214;2023-02-12T13:57:29;9.10;99.90
57390;DHT22;43217;52.694;6.214;2023-02-12T13:59:55;9.00;99.90
57390;DHT22;43217;52.694;6.214;2023-02-12T14:05:23;9.00;99.90
57390;DHT22;43217;52.694;6.214;2023-02-12T14:07:50;9.00;99.90
57390;DHT22;43217;52.694;6.214;2023-02-12T14:10:41;9.00;99.90
57390;DHT22;43217;52.694;6.214;2023-02-12T14:13:12;9.00;99.90
57390;DHT22;43217;52.694;6.214;2023-02-12T14:15:42;9.00;99.90
57390;DHT22;43217;52.694;6.214;2023-02-12T14:20:46;9.00;99.90
57390;DHT22;43217;52.694;6.214;2023-02-12T14:23:27;9.00;99.90
57390;DHT22;43217;52.694;6.214;2023-02-12T14:26:18;9.00;99.90
57390;DHT22;43217;52.694;6.214;2023-02-12T14:28:58;9.00;99.90
57390;DHT22;43217;52.694;6.214;2023-02-12T14:31:38;9.00;99.90
57390;DHT22;43217;52.694;6.214;2023-02-12T14:39:02;9.00;99.90
57390;DHT22;43217;52.694;6.214;2023-02-12T14:41:32;8.90;99.90
57390;DHT22;43217;52.694;6.214;2023-02-12T14:49:51;8.90;99.90
57390;DHT22;43217;52.694;6.214;2023-02-12T14:52:26;8.90;99.90
57390;DHT22;43217;52.694;6.214;2023-02-12T15:00:03;8.90;99.90
57390;DHT22;43217;52.694;6.214;2023-02-12T15:02:33;8.90;99.90
57390;DHT22;43217;52.694;6.214;2023-02-12T15:05:03;8.90;99.90
57390;DHT22;43217;52.694;6.214;2023-02-12T15:07:42;8.90;99.90
57390;DHT22;43217;52.694;6.214;2023-02-12T15:10:18;8.90;99.90
57390;DHT22;43217;52.694;6.214;2023-02-12T15:13:23;8.90;99.90
57390;DHT22;43217;52.694;6.214;2023-02-12T15:15:56;8.90;99.90
57390;DHT22;43217;52.694;6.214;2023-02-12T15:21:08;8.80;99.90
57390;DHT22;43217;52.694;6.214;2023-02-12T15:23:42;8.80;99.90
57390;DHT22;43217;52.694;6.214;2023-02-12T15:26:17;8.80;99.90
57390;DHT22;43217;52.694;6.214;2023-02-12T15:28:47;8.80;99.90
57390;DHT22;43217;52.694;6.214;2023-02-12T15:31:19;8.80;99.90
57390;DHT22;43217;52.694;6.214;2023-02-12T15:33:50;8.80;99.90
57390;DHT22;43217;52.694;6.214;2023-02-12T15:36:21;8.80;99.90
57390;DHT22;43217;52.694;6.214;2023-02-12T15:38:51;8.80;99.90
57390;DHT22;43217;52.694;6.214;2023-02-12T15:43:58;8.70;99.90
57390;DHT22;43217;52.694;6.214;2023-02-12T15:46:24;8.70;99.90
57390;DHT22;43217;52.694;6.214;2023-02-12T15:48:50;8.70;99.90
57390;DHT22;43217;52.694;6.214;2023-02-12T15:53:51;8.60;99.90
57390;DHT22;43217;52.694;6.214;2023-02-12T15:56:20;8.60;99.90
57390;DHT22;43217;52.694;6.214;2023-02-12T15:58:47;8.60;99.90
57390;DHT22;43217;52.694;6.214;2023-02-12T16:01:21;8.60;99.90
57390;DHT22;43217;52.694;6.214;2023-02-12T16:03:55;8.50;99.90
57390;DHT22;43217;52.694;6.214;2023-02-12T16:06:24;8.50;99.90
57390;DHT22;43217;52.694;6.214;2023-02-12T16:09:03;8.50;99.90
57390;DHT22;43217;52.694;6.214;2023-02-12T16:11:31;8.50;99.90
57390;DHT22;43217;52.694;6.214;2023-02-12T16:14:03;8.40;99.90
57390;DHT22;43217;52.694;6.214;2023-02-12T16:16:45;8.40;99.90
57390;DHT22;43217;52.694;6.214;2023-02-12T16:21:48;8.50;99.90
57390;DHT22;43217;52.694;6.214;2023-02-12T16:26:52;8.40;99.90
57390;DHT22;43217;52.694;6.214;2023-02-12T16:29:19;8.40;99.90
57390;DHT22;43217;52.694;6.214;2023-02-12T16:31:53;8.40;99.90
57390;DHT22;43217;52.694;6.214;2023-02-12T16:34:45;8.40;99.90
57390;DHT22;43217;52.694;6.214;2023-02-12T16:42:58;8.40;99.90
57390;DHT22;43217;52.694;6.214;2023-02-12T16:48:36;8.40;99.90
57390;DHT22;43217;52.694;6.214;2023-02-12T16:50:44;8.40;99.90
57390;DHT22;43217;52.694;6.214;2023-02-12T16:53:35;8.40;99.90
57390;DHT22;43217;52.694;6.214;2023-02-12T16:56:03;8.40;99.90
57390;DHT22;43217;52.694;6.214;2023-02-12T16:58:29;8.30;99.90
57390;DHT22;43217;52.694;6.214;2023-02-12T17:00:56;8.30;99.90
57390;DHT22;43217;52.694;6.214;2023-02-12T17:03:22;8.40;99.90
57390;DHT22;43217;52.694;6.214;2023-02-12T17:05:48;8.40;99.90
57390;DHT22;43217;52.694;6.214;2023-02-12T17:08:20;8.40;99.90
57390;DHT22;43217;52.694;6.214;2023-02-12T17:10:47;8.40;99.90
57390;DHT22;43217;52.694;6.214;2023-02-12T17:13:13;8.40;99.90
57390;DHT22;43217;52.694;6.214;2023-02-12T17:15:44;8.40;99.90
57390;DHT22;43217;52.694;6.214;2023-02-12T17:18:11;8.40;99.90
57390;DHT22;43217;52.694;6.214;2023-02-12T17:20:38;8.40;99.90
57390;DHT22;43217;52.694;6.214;2023-02-12T17:23:04;8.30;99.90
57390;DHT22;43217;52.694;6.214;2023-02-12T17:25:31;8.40;99.90
57390;DHT22;43217;52.694;6.214;2023-02-12T17:27:58;8.30;99.90
57390;DHT22;43217;52.694;6.214;2023-02-12T17:30:23;8.30;99.90
57390;DHT22;43217;52.694;6.214;2023-02-12T17:32:50;8.30;99.90
57390;DHT22;43217;52.694;6.214;2023-02-12T17:35:16;8.30;99.90
57390;DHT22;43217;52.694;6.214;2023-02-12T17:37:42;8.30;99.90
57390;DHT22;43217;52.694;6.214;2023-02-12T17:40:08;8.30;99.90
57390;DHT22;43217;52.694;6.214;2023-02-12T17:42:36;8.30;99.90
57390;DHT22;43217;52.694;6.214;2023-02-12T17:45:02;8.30;99.90
57390;DHT22;43217;52.694;6.214;2023-02-12T17:47:28;8.30;99.90
57390;DHT22;43217;52.694;6.214;2023-02-12T17:49:55;8.30;99.90
57390;DHT22;43217;52.694;6.214;2023-02-12T17:52:21;8.20;99.90
57390;DHT22;43217;52.694;6.214;2023-02-12T17:54:47;8.20;99.90
57390;DHT22;43217;52.694;6.214;2023-02-12T17:57:14;8.20;99.90
57390;DHT22;43217;52.694;6.214;2023-02-12T17:59:41;8.20;99.90
57390;DHT22;43217;52.694;6.214;2023-02-12T18:02:08;8.20;99.90
57390;DHT22;43217;52.694;6.214;2023-02-12T18:04:35;8.20;99.90
57390;DHT22;43217;52.694;6.214;2023-02-12T18:07:02;8.20;99.90
57390;DHT22;43217;52.694;6.214;2023-02-12T18:09:27;8.20;99.90
57390;DHT22;43217;52.694;6.214;2023-02-12T18:11:53;8.10;99.90
57390;DHT22;43217;52.694;6.214;2023-02-12T18:14:18;8.20;99.90
57390;DHT22;43217;52.694;6.214;2023-02-12T18:16:44;8.10;99.90
57390;DHT22;43217;52.694;6.214;2023-02-12T18:19:10;8.10;99.90
57390;DHT22;43217;52.694;6.214;2023-02-12T18:21:36;8.10;99.90
57390;DHT22;43217;52.694;6.214;2023-02-12T18:24:03;8.10;99.90
57390;DHT22;43217;52.694;6.214;2023-02-12T18:26:29;8.10;99.90
57390;DHT22;43217;52.694;6.214;2023-02-12T18:28:56;8.10;99.90
57390;DHT22;43217;52.694;6.214;2023-02-12T18:31:22;8.10;99.90
57390;DHT22;43217;52.694;6.214;2023-02-12T18:33:48;8.10;99.90
57390;DHT22;43217;52.694;6.214;2023-02-12T18:36:15;8.10;99.90
57390;DHT22;43217;52.694;6.214;2023-02-12T18:38:42;8.10;99.90
57390;DHT22;43217;52.694;6.214;2023-02-12T18:41:20;8.10;99.90
57390;DHT22;43217;52.694;6.214;2023-02-12T18:43:47;8.10;99.90
57390;DHT22;43217;52.694;6.214;2023-02-12T18:46:15;8.10;99.90
57390;DHT22;43217;52.694;6.214;2023-02-12T18:48:42;8.10;99.90
57390;DHT22;43217;52.694;6.214;2023-02-12T18:51:09;8.10;99.90
57390;DHT22;43217;52.694;6.214;2023-02-12T18:53:35;8.10;99.90
57390;DHT22;43217;52.694;6.214;2023-02-12T18:56:05;8.10;99.90
57390;DHT22;43217;52.694;6.214;2023-02-12T18:58:31;8.10;99.90
57390;DHT22;43217;52.694;6.214;2023-02-12T19:00:57;8.10;99.90